Time;durP1;ratioP1;P1;durP2;ratioP2;P2;SDS_P1;SDS_P2;PMS_P1;PMS_P2;Temp;Humidity;BMP_temperature;BMP_pressure;BME280_temperature;BME280_humidity;BME280_pressure;Samples;Min_cycle;Max_cycle;Signal;HPM_P1;HPM_P2
2023/08/26 00:01:26;;;;;;;0.10;0.10;;;;;;;20.89;100.00;98609.03;5093858;28;20256;-58
2023/08/26 00:04:13;;;;;;;0.10;0.10;;;;;;;20.92;100.00;98611.38;5095082;28;20198;-58
2023/08/26 00:07:01;;;;;;;0.10;0.10;;;;;;;21.00;100.00;98608.63;5095293;28;20190;-58
2023/08/26 00:09:48;;;;;;;0.10;0.10;;;;;;;20.98;100.00;98605.28;5095208;28;20233;-58
2023/08/26 00:12:35;;;;;;;0.00;0.00;;;;;;;20.95;100.00;98592.19;5093872;28;20253;-57
2023/08/26 00:15:23;;;;;;;0.10;0.10;;;;;;;20.94;100.00;98605.78;5093720;28;20198;-58
2023/08/26 00:18:11;;;;;;;0.10;0.10;;;;;;;21.06;100.00;98620.56;5095037;28;20266;-58
2023/08/26 00:20:58;;;;;;;0.10;0.10;;;;;;;21.01;100.00;98604.06;5094710;28;20248;-58
2023/08/26 00:23:46;;;;;;;0.10;0.10;;;;;;;21.06;100.00;98594.47;5095132;28;20536;-58
2023/08/26 00:26:32;;;;;;;0.10;0.10;;;;;;;21.00;100.00;98579.00;5094851;28;20202;-57
2023/08/26 00:29:19;;;;;;;0.00;0.00;;;;;;;21.09;100.00;98572.53;5093643;28;20722;-58
2023/08/26 00:32:07;;;;;;;0.10;0.10;;;;;;;21.07;100.00;98554.91;5094773;28;20190;-58
2023/08/26 00:34:53;;;;;;;0.10;0.10;;;;;;;21.03;100.00;98553.56;5093805;28;20233;-58
2023/08/26 00:37:40;;;;;;;0.10;0.10;;;;;;;21.18;100.00;98551.78;5094190;28;20222;-58
2023/08/26 00:40:30;;;;;;;0.10;0.10;;;;;;;21.00;100.00;98538.59;5093608;28;20198;-58
2023/08/26 00:43:17;;;;;;;0.07;0.07;;;;;;;20.90;100.00;98527.25;5093125;28;20199;-58
2023/08/26 00:46:04;;;;;;;0.10;0.10;;;;;;;20.91;100.00;98541.53;5092051;28;20277;-58
2023/08/26 00:48:51;;;;;;;0.10;0.10;;;;;;;20.84;100.00;98530.66;5094426;28;20218;-58
2023/08/26 00:51:38;;;;;;;0.10;0.10;;;;;;;20.74;100.00;98500.44;5093418;28;20690;-58
2023/08/26 00:54:27;;;;;;;0.10;0.10;;;;;;;20.65;100.00;98510.41;5094306;28;20198;-58
2023/08/26 00:57:17;;;;;;;0.10;0.10;;;;;;;20.65;100.00;98528.41;5093266;28;20194;-58
2023/08/26 01:00:06;;;;;;;0.10;0.10;;;;;;;20.57;100.00;98497.88;5091926;28;20207;-58
2023/08/26 01:02:53;;;;;;;0.10;0.10;;;;;;;20.66;100.00;98501.34;5093875;28;20234;-58
2023/08/26 01:05:39;;;;;;;0.00;0.00;;;;;;;20.69;100.00;98517.13;5093106;28;20310;-57
2023/08/26 01:08:27;;;;;;;0.10;0.10;;;;;;;20.60;100.00;98511.97;5093122;28;20195;-58
2023/08/26 01:11:22;;;;;;;0.10;0.10;;;;;;;20.60;100.00;98503.91;5092973;28;20222;-58
2023/08/26 01:14:17;;;;;;;0.10;0.10;;;;;;;20.50;100.00;98521.13;5092888;28;20187;-58
2023/08/26 01:17:05;;;;;;;0.10;0.10;;;;;;;20.42;100.00;98522.97;5092811;28;20202;-58
2023/08/26 01:19:55;;;;;;;0.10;0.10;;;;;;;20.20;100.00;98516.53;5093836;28;20211;-58
2023/08/26 01:22:43;;;;;;;0.10;0.10;;;;;;;20.15;100.00;98541.25;5092487;28;20295;-59
2023/08/26 01:25:32;;;;;;;0.10;0.10;;;;;;;20.10;100.00;98549.00;5093545;28;20195;-59
2023/08/26 01:28:20;;;;;;;0.10;0.10;;;;;;;19.99;100.00;98558.28;5093603;28;20194;-58
2023/08/26 01:31:10;;;;;;;0.10;0.10;;;;;;;19.95;100.00;98583.00;5091330;28;20255;-58
2023/08/26 01:34:03;;;;;;;0.10;0.10;;;;;;;20.11;100.00;98580.28;5093458;28;20274;-58
2023/08/26 01:36:53;;;;;;;0.10;0.10;;;;;;;20.00;100.00;98573.41;5092382;28;20199;-58
2023/08/26 01:39:41;;;;;;;0.10;0.10;;;;;;;19.98;100.00;98577.28;5092493;28;20182;-58
2023/08/26 01:42:31;;;;;;;0.10;0.10;;;;;;;20.11;100.00;98568.66;5092982;28;20334;-59
2023/08/26 01:45:18;;;;;;;0.10;0.10;;;;;;;20.02;100.00;98563.31;5092136;28;20276;-58
2023/08/26 01:48:05;;;;;;;0.10;0.10;;;;;;;19.92;100.00;98559.16;5092426;28;20191;-58
2023/08/26 01:50:52;;;;;;;0.03;0.03;;;;;;;19.93;100.00;98567.03;5093329;28;20322;-58
2023/08/26 01:53:39;;;;;;;0.10;0.10;;;;;;;19.84;100.00;98576.13;5093233;28;20679;-58
2023/08/26 01:56:26;;;;;;;0.10;0.10;;;;;;;19.83;100.00;98574.47;5091900;28;20194;-59
2023/08/26 01:59:14;;;;;;;0.10;0.10;;;;;;;19.87;100.00;98583.00;5091695;28;20190;-58
2023/08/26 02:02:01;;;;;;;0.10;0.10;;;;;;;19.72;100.00;98597.16;5091979;28;20294;-59
2023/08/26 02:04:48;;;;;;;0.10;0.10;;;;;;;19.78;100.00;98586.72;5092120;28;20646;-58
2023/08/26 02:07:36;;;;;;;0.10;0.10;;;;;;;19.72;100.00;98580.19;5092097;28;20309;-58
2023/08/26 02:10:23;;;;;;;0.10;0.10;;;;;;;19.82;100.00;98593.44;5092967;28;20195;-58
2023/08/26 02:13:12;;;;;;;0.10;0.10;;;;;;;19.82;100.00;98596.97;5092838;28;20317;-58
2023/08/26 02:16:00;;;;;;;0.10;0.10;;;;;;;19.94;100.00;98613.56;5091672;28;20210;-58
2023/08/26 02:18:48;;;;;;;0.10;0.10;;;;;;;19.83;100.00;98609.41;5092925;28;20198;-58
2023/08/26 02:21:35;;;;;;;0.00;0.00;;;;;;;19.81;100.00;98597.16;5092003;28;20298;-58
2023/08/26 02:24:22;;;;;;;0.10;0.10;;;;;;;19.69;100.00;98599.34;5092990;28;20199;-58
2023/08/26 02:27:08;;;;;;;0.10;0.10;;;;;;;19.61;100.00;98608.25;5091742;28;20219;-58
2023/08/26 02:29:55;;;;;;;0.10;0.10;;;;;;;19.54;100.00;98611.75;5090568;28;20233;-58
2023/08/26 02:32:43;;;;;;;0.10;0.10;;;;;;;19.56;100.00;98597.16;5092898;28;20187;-58
2023/08/26 02:35:30;;;;;;;0.10;0.10;;;;;;;19.50;100.00;98589.75;5092711;28;20190;-59
2023/08/26 02:38:17;;;;;;;0.10;0.10;;;;;;;19.34;100.00;98584.38;5092402;28;20403;-58
2023/08/26 02:41:04;;;;;;;0.07;0.07;;;;;;;19.26;100.00;98589.75;5091734;28;20278;-58
2023/08/26 02:43:51;;;;;;;0.00;0.00;;;;;;;19.27;100.00;98597.63;5091380;28;20222;-58
2023/08/26 02:46:38;;;;;;;0.10;0.10;;;;;;;19.19;100.00;98599.47;5091268;28;20203;-58
2023/08/26 02:49:27;;;;;;;0.00;0.00;;;;;;;19.22;100.00;98602.69;5091507;28;20203;-58
2023/08/26 02:52:14;;;;;;;0.00;0.00;;;;;;;19.22;100.00;98601.84;5091569;28;20195;-58
2023/08/26 02:55:01;;;;;;;0.10;0.10;;;;;;;19.24;100.00;98613.25;5091469;28;20194;-58
2023/08/26 02:57:47;;;;;;;0.00;0.00;;;;;;;19.21;100.00;98619.81;5092522;28;20203;-58
2023/08/26 03:00:34;;;;;;;0.00;0.00;;;;;;;19.18;100.00;98625.50;5090378;28;20199;-58
2023/08/26 03:03:22;;;;;;;0.10;0.10;;;;;;;19.25;100.00;98625.66;5092333;28;20222;-58
2023/08/26 03:06:11;;;;;;;0.07;0.07;;;;;;;19.17;100.00;98624.66;5091491;28;20199;-58
2023/08/26 03:08:59;;;;;;;0.10;0.10;;;;;;;19.13;100.00;98636.75;5096583;28;20261;-58
2023/08/26 03:11:46;;;;;;;0.00;0.00;;;;;;;19.05;100.00;98638.56;5095397;28;20718;-58
2023/08/26 03:14:33;;;;;;;0.00;0.00;;;;;;;19.04;100.00;98655.69;5095033;28;20289;-58
2023/08/26 03:17:20;;;;;;;0.00;0.00;;;;;;;18.99;100.00;98664.22;5095290;28;20195;-58
2023/08/26 03:20:08;;;;;;;0.00;0.00;;;;;;;18.95;100.00;98672.75;5095174;28;20190;-58
2023/08/26 03:22:56;;;;;;;0.10;0.10;;;;;;;18.93;100.00;98678.31;5095114;28;20203;-58
2023/08/26 03:25:43;;;;;;;0.10;0.10;;;;;;;18.91;100.00;98676.75;5095022;28;20195;-58
2023/08/26 03:28:30;;;;;;;0.00;0.00;;;;;;;18.95;100.00;98678.97;5094956;28;20201;-59
2023/08/26 03:31:19;;;;;;;0.10;0.10;;;;;;;18.92;100.00;98678.47;5093607;28;20238;-58
2023/08/26 03:34:07;;;;;;;0.10;0.10;;;;;;;18.78;100.00;98661.97;5094960;28;20187;-59
2023/08/26 03:36:54;;;;;;;0.10;0.10;;;;;;;18.66;100.00;98667.81;5094661;28;20340;-59
2023/08/26 03:39:43;;;;;;;0.10;0.10;;;;;;;18.61;100.00;98670.91;5094749;28;20206;-58
2023/08/26 03:42:30;;;;;;;0.10;0.10;;;;;;;18.58;100.00;98665.88;5095616;28;20198;-58
2023/08/26 03:45:18;;;;;;;0.10;0.10;;;;;;;18.55;100.00;98652.81;5093911;28;20198;-58
2023/08/26 03:48:06;;;;;;;0.00;0.00;;;;;;;18.50;100.00;98647.06;5094689;28;20195;-58
2023/08/26 03:50:54;;;;;;;0.10;0.10;;;;;;;18.41;100.00;98635.47;5095611;28;20309;-58
2023/08/26 03:53:41;;;;;;;0.10;0.10;;;;;;;18.40;100.00;98627.59;5095347;28;20307;-58
2023/08/26 03:56:31;;;;;;;0.10;0.10;;;;;;;18.53;100.00;98644.09;5095418;28;20269;-58
2023/08/26 03:59:19;;;;;;;0.10;0.10;;;;;;;18.54;100.00;98643.06;5093124;28;20261;-58
2023/08/26 04:02:06;;;;;;;0.10;0.10;;;;;;;18.55;100.00;98639.41;5095164;28;20793;-58
2023/08/26 04:04:54;;;;;;;0.10;0.10;;;;;;;18.52;100.00;98645.91;5094029;28;20230;-58
2023/08/26 04:07:41;;;;;;;0.10;0.10;;;;;;;18.52;100.00;98640.53;5095134;28;20191;-58
2023/08/26 04:10:28;;;;;;;0.10;0.10;;;;;;;18.55;100.00;98653.63;5093977;28;20249;-58
2023/08/26 04:13:23;;;;;;;0.00;0.00;;;;;;;18.57;100.00;98664.22;5094203;28;20190;-58
2023/08/26 04:16:09;;;;;;;0.00;0.00;;;;;;;18.40;100.00;98662.44;5092801;28;20195;-58
2023/08/26 04:18:57;;;;;;;0.00;0.00;;;;;;;18.39;100.00;98664.28;5093781;28;20313;-58
2023/08/26 04:21:44;;;;;;;0.00;0.00;;;;;;;18.18;100.00;98672.72;5094911;28;20201;-58
2023/08/26 04:24:33;;;;;;;0.00;0.00;;;;;;;18.24;100.00;98672.09;5094673;28;20218;-58
2023/08/26 04:27:19;;;;;;;0.00;0.00;;;;;;;18.34;100.00;98680.03;5093898;28;20199;-58
2023/08/26 04:30:11;;;;;;;0.10;0.10;;;;;;;18.32;100.00;98679.31;5093560;28;20198;-58
2023/08/26 04:33:00;;;;;;;0.10;0.10;;;;;;;18.25;100.00;98670.25;5094933;28;20733;-58
2023/08/26 04:35:48;;;;;;;0.10;0.10;;;;;;;18.22;100.00;98668.72;5094659;28;20206;-58
2023/08/26 04:38:35;;;;;;;0.10;0.10;;;;;;;18.18;100.00;98670.03;5094317;28;20231;-58
2023/08/26 04:41:23;;;;;;;0.03;0.03;;;;;;;18.12;100.00;98676.03;5093580;28;20202;-58
2023/08/26 04:44:11;;;;;;;0.10;0.10;;;;;;;18.02;100.00;98678.81;5092502;28;20214;-58
2023/08/26 04:46:59;;;;;;;0.10;0.10;;;;;;;18.07;100.00;98691.75;5094646;28;20818;-58
2023/08/26 04:49:47;;;;;;;0.10;0.10;;;;;;;17.89;100.00;98685.59;5094485;28;20249;-58
2023/08/26 04:52:33;;;;;;;0.10;0.10;;;;;;;17.76;100.00;98685.13;5094284;28;20253;-58
2023/08/26 04:55:20;;;;;;;0.00;0.00;;;;;;;17.77;100.00;98694.88;5094368;28;20182;-58
2023/08/26 04:58:09;;;;;;;0.00;0.00;;;;;;;17.67;100.00;98694.94;5093338;28;20198;-58
2023/08/26 05:00:55;;;;;;;0.10;0.10;;;;;;;17.63;100.00;98694.38;5092821;28;20680;-59
2023/08/26 05:03:44;;;;;;;0.10;0.10;;;;;;;17.74;100.00;98687.97;5093107;28;20234;-58
2023/08/26 05:06:32;;;;;;;0.10;0.10;;;;;;;17.70;100.00;98686.59;5093081;28;20226;-58
2023/08/26 05:09:19;;;;;;;0.10;0.10;;;;;;;17.73;100.00;98676.41;5090903;28;20647;-58
2023/08/26 05:12:07;;;;;;;0.10;0.10;;;;;;;18.01;100.00;98685.16;5092635;28;20207;-58
2023/08/26 05:14:56;;;;;;;0.10;0.10;;;;;;;17.71;100.00;98691.81;5091512;28;20199;-58
2023/08/26 05:17:43;;;;;;;0.00;0.00;;;;;;;17.71;100.00;98701.69;5092875;28;20190;-58
2023/08/26 05:20:31;;;;;;;0.10;0.10;;;;;;;17.72;100.00;98706.88;5092856;28;20199;-58
2023/08/26 05:23:19;;;;;;;0.10;0.10;;;;;;;17.69;100.00;98709.88;5092544;28;20201;-58
2023/08/26 05:26:06;;;;;;;0.10;0.10;;;;;;;17.59;100.00;98713.59;5093388;28;20194;-58
2023/08/26 05:28:53;;;;;;;0.10;0.10;;;;;;;17.69;100.00;98715.22;5093497;28;20191;-58
2023/08/26 05:31:41;;;;;;;0.10;0.10;;;;;;;17.68;100.00;98723.41;5092340;28;20198;-58
2023/08/26 05:34:28;;;;;;;0.10;0.10;;;;;;;17.66;100.00;98720.88;5092179;28;20224;-58
2023/08/26 05:37:17;;;;;;;0.10;0.10;;;;;;;17.71;100.00;98721.28;5092344;28;20225;-58
2023/08/26 05:40:04;;;;;;;0.10;0.10;;;;;;;17.58;100.00;98736.03;5093299;28;20195;-58
2023/08/26 05:42:52;;;;;;;0.00;0.00;;;;;;;17.68;100.00;98729.59;5092390;28;20191;-58
2023/08/26 05:45:39;;;;;;;0.10;0.10;;;;;;;17.57;100.00;98723.63;5090622;28;20714;-58
2023/08/26 05:48:26;;;;;;;0.10;0.10;;;;;;;17.46;100.00;98725.50;5092063;28;20249;-58
2023/08/26 05:51:13;;;;;;;0.10;0.10;;;;;;;17.47;100.00;98723.72;5092575;28;20194;-58
2023/08/26 05:54:02;;;;;;;0.10;0.10;;;;;;;17.38;100.00;98706.72;5092191;28;20195;-56
2023/08/26 05:56:49;;;;;;;0.00;0.00;;;;;;;17.37;100.00;98709.53;5091884;28;20203;-55
2023/08/26 05:59:36;;;;;;;0.10;0.10;;;;;;;17.31;100.00;98700.28;5090917;28;20237;-55
2023/08/26 06:02:22;;;;;;;0.10;0.10;;;;;;;17.29;100.00;98701.44;5092103;28;20670;-55
2023/08/26 06:05:09;;;;;;;0.10;0.10;;;;;;;17.25;100.00;98710.75;5091633;28;20341;-58
2023/08/26 06:07:57;;;;;;;0.10;0.10;;;;;;;17.28;100.00;98707.78;5092039;28;20236;-58
2023/08/26 06:10:45;;;;;;;0.10;0.10;;;;;;;17.25;100.00;98708.91;5091912;28;20195;-58
2023/08/26 06:13:33;;;;;;;0.10;0.10;;;;;;;17.25;100.00;98708.06;5091783;28;20309;-58
2023/08/26 06:16:20;;;;;;;0.10;0.10;;;;;;;17.25;100.00;98718.78;5090556;28;20194;-58
2023/08/26 06:19:07;;;;;;;0.10;0.10;;;;;;;17.29;100.00;98714.81;5092013;28;20203;-58
2023/08/26 06:21:55;;;;;;;0.10;0.10;;;;;;;17.33;100.00;98722.38;5091416;28;20289;-58
2023/08/26 06:24:42;;;;;;;0.10;0.10;;;;;;;17.36;100.00;98739.97;5092791;28;20353;-58
2023/08/26 06:27:31;;;;;;;0.00;0.00;;;;;;;17.34;100.00;98736.59;5092821;28;20194;-58
2023/08/26 06:30:18;;;;;;;0.10;0.10;;;;;;;17.43;100.00;98741.06;5090239;28;20191;-58
2023/08/26 06:33:05;;;;;;;0.10;0.10;;;;;;;17.52;100.00;98744.66;5091735;28;20262;-58
2023/08/26 06:35:52;;;;;;;0.10;0.10;;;;;;;17.58;100.00;98742.22;5091690;28;20210;-58
2023/08/26 06:38:38;;;;;;;0.03;0.03;;;;;;;17.75;100.00;98729.84;5092208;28;20263;-58
2023/08/26 06:41:26;;;;;;;0.10;0.10;;;;;;;17.79;100.00;98738.44;5094685;28;20276;-58
2023/08/26 06:44:17;;;;;;;0.10;0.10;;;;;;;17.77;100.00;98740.41;5094618;28;20215;-58
2023/08/26 06:47:10;;;;;;;0.10;0.10;;;;;;;17.82;100.00;98738.09;5095717;28;20198;-58
2023/08/26 06:49:58;;;;;;;0.10;0.10;;;;;;;17.79;100.00;98733.06;5096715;28;20256;-58
2023/08/26 06:52:44;;;;;;;0.10;0.10;;;;;;;17.86;100.00;98732.31;5096662;28;20373;-58
2023/08/26 06:55:32;;;;;;;0.10;0.10;;;;;;;18.05;100.00;98736.63;5096745;28;20241;-58
2023/08/26 06:58:19;;;;;;;0.10;0.10;;;;;;;18.06;100.00;98748.19;5096627;28;20190;-58
2023/08/26 07:01:07;;;;;;;0.10;0.10;;;;;;;18.17;100.00;98746.09;5095188;28;20207;-57
2023/08/26 07:03:54;;;;;;;0.10;0.10;;;;;;;18.28;100.00;98753.88;5096397;28;20195;-58
2023/08/26 07:06:41;;;;;;;0.10;0.10;;;;;;;18.35;100.00;98748.75;5096451;28;20198;-58
2023/08/26 07:09:28;;;;;;;0.10;0.10;;;;;;;18.42;100.00;98754.28;5096379;28;20198;-58
2023/08/26 07:12:15;;;;;;;0.10;0.10;;;;;;;18.50;100.00;98747.16;5096409;28;20218;-58
2023/08/26 07:15:03;;;;;;;0.00;0.00;;;;;;;18.48;100.00;98751.00;5094882;28;20202;-58
2023/08/26 07:17:51;;;;;;;0.10;0.10;;;;;;;18.74;100.00;98738.44;5096157;28;20721;-58
2023/08/26 07:20:38;;;;;;;0.00;0.00;;;;;;;18.81;100.00;98743.97;5096200;28;20190;-58
2023/08/26 07:23:25;;;;;;;0.00;0.00;;;;;;;18.88;100.00;98736.97;5096092;28;20206;-58
2023/08/26 07:26:12;;;;;;;0.10;0.10;;;;;;;18.91;100.00;98733.13;5095834;28;20210;-58
2023/08/26 07:28:59;;;;;;;0.10;0.10;;;;;;;19.08;100.00;98727.66;5095983;28;20266;-58
2023/08/26 07:31:46;;;;;;;0.10;0.10;;;;;;;19.04;100.00;98733.53;5095925;28;20195;-58
2023/08/26 07:34:35;;;;;;;0.00;0.00;;;;;;;19.49;100.00;98718.84;5095945;28;20352;-58
2023/08/26 07:37:22;;;;;;;0.00;0.00;;;;;;;19.05;100.00;98719.94;5095604;28;20272;-57
2023/08/26 07:40:14;;;;;;;0.10;0.10;;;;;;;18.94;100.00;98714.03;5095701;28;20262;-58
2023/08/26 07:43:01;;;;;;;0.00;0.00;;;;;;;19.10;100.00;98722.97;5095649;28;20671;-58
2023/08/26 07:45:48;;;;;;;0.10;0.10;;;;;;;19.12;100.00;98715.59;5094133;28;20571;-58
2023/08/26 07:48:56;;;;;;;0.10;0.10;;;;;;;19.30;100.00;98717.31;5095657;28;20186;-58
2023/08/26 07:51:44;;;;;;;0.10;0.10;;;;;;;19.37;100.00;98715.66;5095461;28;20547;-58
2023/08/26 07:54:31;;;;;;;0.10;0.10;;;;;;;19.42;100.00;98716.00;5095253;28;20203;-58
2023/08/26 07:57:18;;;;;;;0.10;0.10;;;;;;;19.69;100.00;98722.97;5095383;28;20555;-58
2023/08/26 08:00:06;;;;;;;0.10;0.10;;;;;;;19.52;100.00;98730.13;5093857;28;20230;-58
2023/08/26 08:02:58;;;;;;;0.10;0.10;;;;;;;19.45;100.00;98721.88;5095364;28;20229;-57
2023/08/26 08:05:46;;;;;;;0.10;0.10;;;;;;;19.93;100.00;98730.19;5094184;28;20797;-58
2023/08/26 08:08:35;;;;;;;0.10;0.10;;;;;;;20.01;100.00;98722.13;5095259;28;20302;-58
2023/08/26 08:11:22;;;;;;;0.10;0.10;;;;;;;20.17;100.00;98713.19;5095189;28;20211;-58
2023/08/26 08:14:09;;;;;;;0.10;0.10;;;;;;;20.15;100.00;98720.59;5093894;28;20212;-58
2023/08/26 08:16:56;;;;;;;0.10;0.10;;;;;;;20.43;100.00;98721.91;5095016;28;20195;-57
2023/08/26 08:19:45;;;;;;;0.03;0.03;;;;;;;20.66;100.00;98719.34;5095087;28;20765;-57
2023/08/26 08:22:36;;;;;;;0.10;0.10;;;;;;;20.72;100.00;98718.63;5094996;28;20207;-57
2023/08/26 08:25:25;;;;;;;0.10;0.10;;;;;;;20.76;100.00;98722.69;5094700;28;20230;-57
2023/08/26 08:28:12;;;;;;;0.10;0.10;;;;;;;21.04;100.00;98719.53;5094955;28;20195;-57
2023/08/26 08:30:59;;;;;;;0.10;0.10;;;;;;;20.79;100.00;98725.00;5093546;28;20186;-57
2023/08/26 08:33:45;;;;;;;0.10;0.10;;;;;;;20.88;94.45;98719.59;5094941;28;20567;-56
2023/08/26 08:36:32;;;;;;;0.00;0.00;;;;;;;20.78;100.00;98726.03;5094313;28;20339;-56
2023/08/26 08:39:19;;;;;;;0.10;0.10;;;;;;;20.85;99.04;98721.63;5094666;28;20305;-57
2023/08/26 08:42:10;;;;;;;0.10;0.10;;;;;;;20.79;99.42;98718.78;5094239;28;20350;-57
2023/08/26 08:44:57;;;;;;;0.10;0.10;;;;;;;20.88;100.00;98723.13;5092952;28;20195;-57
2023/08/26 08:47:45;;;;;;;0.10;0.10;;;;;;;21.15;99.10;98727.22;5094322;28;20207;-57
2023/08/26 08:50:32;;;;;;;0.10;0.10;;;;;;;21.19;100.00;98730.41;5093560;28;20276;-56
2023/08/26 08:53:26;;;;;;;0.10;0.10;;;;;;;21.35;98.08;98719.56;5094348;28;20687;-56
2023/08/26 08:56:16;;;;;;;0.10;0.10;;;;;;;21.39;96.31;98726.25;5093955;28;20187;-56
2023/08/26 08:59:06;;;;;;;0.08;0.08;;;;;;;21.73;97.12;98727.75;5093389;28;20233;-55
2023/08/26 09:01:55;;;;;;;0.10;0.10;;;;;;;21.64;99.57;98726.97;5094266;28;20214;-56
2023/08/26 09:04:42;;;;;;;0.10;0.10;;;;;;;21.71;95.23;98738.69;5093014;28;20266;-57
2023/08/26 09:07:29;;;;;;;0.10;0.10;;;;;;;21.31;90.34;98731.69;5094286;28;20195;-56
2023/08/26 09:10:17;;;;;;;0.10;0.10;;;;;;;21.74;88.38;98729.41;5093677;28;20190;-57
2023/08/26 09:13:05;;;;;;;0.10;0.10;;;;;;;21.96;93.42;98721.31;5093614;28;20203;-57
2023/08/26 09:15:53;;;;;;;0.10;0.10;;;;;;;22.18;88.00;98718.78;5092658;28;20225;-56
2023/08/26 09:18:41;;;;;;;0.00;0.00;;;;;;;22.19;83.95;98715.88;5093920;28;20191;-58
2023/08/26 09:21:28;;;;;;;0.00;0.00;;;;;;;22.51;83.26;98713.91;5093839;28;20248;-55
2023/08/26 09:24:16;;;;;;;0.10;0.10;;;;;;;22.51;82.42;98712.03;5093759;28;20273;-55
2023/08/26 09:27:03;;;;;;;0.08;0.08;;;;;;;22.56;85.50;98714.16;5093401;28;20288;-55
2023/08/26 09:29:51;;;;;;;0.10;0.10;;;;;;;22.74;86.61;98713.81;5092405;28;20256;-56
2023/08/26 09:32:43;;;;;;;0.00;0.00;;;;;;;23.18;75.77;98718.38;5093610;28;20193;-56
2023/08/26 09:35:30;;;;;;;0.10;0.10;;;;;;;22.78;80.96;98726.75;5093557;28;20241;-55
2023/08/26 09:38:21;;;;;;;0.10;0.10;;;;;;;22.55;82.27;98739.50;5092836;28;20325;-56
2023/08/26 09:41:08;;;;;;;0.10;0.10;;;;;;;22.49;75.35;98735.69;5093319;28;20198;-57
2023/08/26 09:43:55;;;;;;;0.10;0.10;;;;;;;22.20;75.30;98724.84;5092698;28;20202;-57
2023/08/26 09:46:43;;;;;;;0.05;0.05;;;;;;;22.34;79.10;98724.03;5093302;28;20218;-57
2023/08/26 09:49:35;;;;;;;0.10;0.10;;;;;;;21.94;75.87;98720.66;5092025;28;20297;-56
2023/08/26 09:52:22;;;;;;;0.00;0.00;;;;;;;22.14;76.65;98726.41;5093303;28;20195;-57
2023/08/26 09:55:10;;;;;;;0.00;0.00;;;;;;;22.05;73.84;98721.22;5092864;28;20186;-56
2023/08/26 09:57:57;;;;;;;0.10;0.10;;;;;;;22.33;74.49;98718.81;5093173;28;20310;-57
2023/08/26 10:00:50;;;;;;;0.10;0.10;;;;;;;22.52;71.69;98720.97;5090737;28;20198;-57
2023/08/26 10:03:40;;;;;;;0.10;0.10;;;;;;;22.70;71.77;98710.66;5092857;28;20211;-57
2023/08/26 10:06:30;;;;;;;0.10;0.10;;;;;;;23.40;73.94;98711.97;5093074;28;20210;-57
2023/08/26 10:09:27;;;;;;;0.10;0.10;;;;;;;24.08;65.83;98713.28;5093400;28;20216;-58
2023/08/26 10:12:20;;;;;;;0.00;0.00;;;;;;;24.29;67.19;98717.81;5093123;28;20199;-57
2023/08/26 10:15:13;;;;;;;0.10;0.10;;;;;;;24.44;64.90;98717.75;5091643;28;20262;-57
2023/08/26 10:18:05;;;;;;;0.10;0.10;;;;;;;24.87;60.16;98726.53;5093216;28;20179;-56
2023/08/26 10:20:53;;;;;;;0.10;0.10;;;;;;;25.30;59.90;98729.06;5093198;28;20479;-58
2023/08/26 10:23:42;;;;;;;0.10;0.10;;;;;;;24.75;55.95;98734.41;5092810;28;20194;-56
2023/08/26 10:26:30;;;;;;;0.10;0.10;;;;;;;24.24;59.35;98734.66;5092764;28;20222;-56
2023/08/26 10:29:18;;;;;;;0.00;0.00;;;;;;;24.55;59.24;98719.91;5091590;28;20335;-56
2023/08/26 10:32:22;;;;;;;0.00;0.00;;;;;;;24.44;59.24;98717.75;5091575;28;20264;-57
2023/08/26 10:35:12;;;;;;;0.10;0.10;;;;;;;25.39;58.54;98709.72;5092870;28;20336;-56
2023/08/26 10:38:10;;;;;;;0.00;0.00;;;;;;;26.56;52.93;98707.53;5092641;28;20260;-57
2023/08/26 10:41:11;;;;;;;0.08;0.08;;;;;;;27.50;50.64;98699.63;5092812;28;20190;-57
2023/08/26 10:44:01;;;;;;;0.00;0.00;;;;;;;29.21;44.84;98714.72;5092341;28;20194;-57
2023/08/26 10:46:55;;;;;;;0.00;0.00;;;;;;;30.35;42.22;98704.66;5092289;28;20729;-57
2023/08/26 10:49:42;;;;;;;0.00;0.00;;;;;;;31.65;38.24;98690.50;5092669;28;20199;-56
2023/08/26 10:52:34;;;;;;;0.00;0.00;;;;;;;31.60;37.71;98691.25;5092776;28;20288;-57
2023/08/26 10:55:22;;;;;;;0.00;0.00;;;;;;;32.26;36.01;98694.31;5092601;28;20195;-57
2023/08/26 10:58:16;;;;;;;0.00;0.00;;;;;;;31.29;36.63;98694.47;5091611;28;20217;-56
2023/08/26 11:01:03;;;;;;;0.00;0.00;;;;;;;30.73;37.58;98698.75;5091000;28;20311;-57
2023/08/26 11:03:50;;;;;;;0.00;0.00;;;;;;;28.84;39.37;98705.69;5092526;28;20261;-56
2023/08/26 11:06:38;;;;;;;0.00;0.00;;;;;;;29.58;39.18;98694.50;5092440;28;20305;-56
2023/08/26 11:09:25;;;;;;;0.00;0.00;;;;;;;28.73;41.46;98694.47;5092472;28;20194;-56
2023/08/26 11:12:26;;;;;;;0.00;0.00;;;;;;;29.35;39.58;98694.41;5092401;28;20195;-58
2023/08/26 11:15:14;;;;;;;0.10;0.10;;;;;;;29.93;38.92;98700.09;5091201;28;20199;-57
2023/08/26 11:18:01;;;;;;;0.00;0.00;;;;;;;30.04;38.64;98703.91;5092094;28;20191;-57
2023/08/26 11:20:49;;;;;;;0.00;0.00;;;;;;;29.53;39.96;98704.44;5092381;28;20187;-56
2023/08/26 11:23:38;;;;;;;0.00;0.00;;;;;;;29.69;38.63;98690.16;5092342;28;20195;-56
2023/08/26 11:26:25;;;;;;;0.00;0.00;;;;;;;28.48;43.53;98688.28;5091724;28;20215;-57
2023/08/26 11:29:12;;;;;;;0.00;0.00;;;;;;;28.71;43.53;98682.97;5093054;28;20218;-56
2023/08/26 11:32:00;;;;;;;0.00;0.00;;;;;;;29.53;42.64;98663.50;5096089;28;20195;-57
2023/08/26 11:34:48;;;;;;;0.00;0.00;;;;;;;30.91;39.31;98663.03;5095643;28;20233;-57
2023/08/26 11:37:35;;;;;;;0.00;0.00;;;;;;;29.94;40.47;98670.88;5095447;28;20223;-56
2023/08/26 11:40:24;;;;;;;0.00;0.00;;;;;;;29.11;39.95;98681.69;5095805;28;20245;-56
2023/08/26 11:43:12;;;;;;;0.00;0.00;;;;;;;29.22;41.78;98673.56;5095449;28;20366;-57
2023/08/26 11:45:59;;;;;;;0.00;0.00;;;;;;;29.55;39.11;98675.03;5094479;28;20271;-57
2023/08/26 11:48:47;;;;;;;0.00;0.00;;;;;;;28.15;43.13;98683.91;5095759;28;20698;-56
2023/08/26 11:51:35;;;;;;;0.00;0.00;;;;;;;25.98;47.71;98685.63;5095496;28;20260;-56
2023/08/26 11:54:25;;;;;;;0.10;0.10;;;;;;;26.25;49.44;98690.84;5095490;28;20198;-56
2023/08/26 11:57:15;;;;;;;0.10;0.10;;;;;;;25.61;54.33;98685.97;5095393;28;20210;-56
2023/08/26 12:00:10;;;;;;;0.00;0.00;;;;;;;27.39;45.91;98684.84;5094014;28;20195;-56
2023/08/26 12:03:03;;;;;;;0.00;0.00;;;;;;;27.15;46.33;98695.66;5095394;28;20191;-56
2023/08/26 12:05:53;;;;;;;0.00;0.00;;;;;;;26.77;50.79;98690.97;5095179;28;20199;-58
2023/08/26 12:08:40;;;;;;;0.00;0.00;;;;;;;27.26;47.02;98678.66;5094990;28;20214;-56
2023/08/26 12:11:34;;;;;;;0.00;0.00;;;;;;;26.84;48.55;98689.06;5095148;28;20190;-57
2023/08/26 12:14:24;;;;;;;0.00;0.00;;;;;;;27.65;48.48;98692.06;5093884;28;20310;-56
2023/08/26 12:17:11;;;;;;;0.00;0.00;;;;;;;27.46;46.92;98698.41;5095158;28;20199;-57
2023/08/26 12:19:58;;;;;;;0.00;0.00;;;;;;;26.97;48.08;98699.03;5095115;28;20194;-56
2023/08/26 12:22:47;;;;;;;0.10;0.10;;;;;;;27.08;46.59;98693.78;5094784;28;20182;-56
2023/08/26 12:25:36;;;;;;;0.00;0.00;;;;;;;26.89;47.42;98691.13;5095009;28;20199;-57
2023/08/26 12:28:24;;;;;;;0.08;0.08;;;;;;;26.73;49.05;98689.69;5094688;28;20236;-57
2023/08/26 12:31:12;;;;;;;0.08;0.08;;;;;;;28.29;46.56;98681.13;5093477;28;20198;-58
2023/08/26 12:34:00;;;;;;;0.00;0.00;;;;;;;29.91;42.80;98682.25;5094893;28;20199;-57
2023/08/26 12:36:47;;;;;;;0.00;0.00;;;;;;;30.06;41.19;98690.00;5094508;28;20354;-58
2023/08/26 12:39:35;;;;;;;0.00;0.00;;;;;;;31.13;37.45;98684.25;5094428;28;20195;-57
2023/08/26 12:42:22;;;;;;;0.00;0.00;;;;;;;33.06;34.43;98695.78;5094922;28;20195;-57
2023/08/26 12:45:10;;;;;;;0.00;0.00;;;;;;;34.65;33.04;98699.00;5093443;28;20193;-56
2023/08/26 12:47:58;;;;;;;0.00;0.00;;;;;;;35.42;32.22;98702.97;5094298;28;20222;-56
2023/08/26 12:50:45;;;;;;;0.00;0.00;;;;;;;34.28;30.33;98699.81;5094355;28;20207;-56
2023/08/26 12:53:32;;;;;;;0.00;0.00;;;;;;;33.58;32.97;98698.03;5094268;28;20198;-57
2023/08/26 12:56:21;;;;;;;0.00;0.00;;;;;;;33.27;34.01;98692.19;5094261;28;20202;-57
2023/08/26 12:59:10;;;;;;;0.00;0.00;;;;;;;32.42;35.67;98677.03;5093065;28;20210;-57
2023/08/26 13:01:57;;;;;;;0.00;0.00;;;;;;;29.37;39.48;98678.63;5094397;28;20195;-56
2023/08/26 13:04:44;;;;;;;0.00;0.00;;;;;;;31.05;37.08;98683.56;5093941;28;20190;-57
2023/08/26 13:07:31;;;;;;;0.00;0.00;;;;;;;29.95;38.77;98685.34;5094168;28;20210;-56